Colwell, IA (50620)

1:09 AM CDT on August 24, 2016 (GMT -0500)
Charles City Municipal | | Change Station

Elev 1125 ft 43.07 °N, 92.61 °W | Updated 14 minutes ago

Overcast
Overcast
70 °F
Feels Like 70 °F
N
8
Wind Variable Wind from ENE
Gusts 18 mph

Today
High -- | Low -- °F
--% Chance of Precip.
Yesterday
High -- | Low -- °F
Precip. -- in
Pressure 29.90 in
Visibility 8.0 miles
Clouds Mostly Cloudy 700 ft
Overcast 1100 ft
Dew Point 70 °F
Humidity 100%
Rainfall 0.00 in
Snow Depth Not available.
6:26 AM 7:57 PM
Waning Gibbous, 60% visible
METAR KCCY 240555Z AUTO 06007G16KT 8SM BKN007 OVC011 21/21 A2990 RMK AO2
Pressure 29.90 in
Visibility 8.0 miles
Clouds Mostly Cloudy 700 ft
Overcast 1100 ft
Dew Point 70 °F
Humidity 100%
Rainfall 0.00 in
Snow Depth Not available.
6:26 AM 7:57 PM
Waning Gibbous, 60% visible
METAR KCCY 240555Z AUTO 06007G16KT 8SM BKN007 OVC011 21/21 A2990 RMK AO2

10-Day Weather Forecast

Almanac

Astronomy

Aug. 24, 2016 Rise Set
Actual Time
Civil Twilight
Nautical Twilight
Astronomical Twilight
Moon
Length of Visible Light
Length of Day
Tomorrow will be .
, % of the Moon is Illuminated

Today's Extremes

State Highs State Lows

Community

WunderPhotos

Upload Photos

1,934,554 photos uploaded!

WunderBlog® & News

Nearby

Air Quality

  Air Quality AQ Index Pollutant
Not available.

Snow Depth

Station Depth Elevation

Earthquake Activity

City Distance Mag. Time & Date
Minimum magnitude displayed is 2.5.

Coastal Water Temperatures

Place Temperature

Stations

Nearby Weather Stations

Station Location Temp. Windchill Dew Point Humidity Wind Precip. Elev Updated Type
                   

Watches & Warnings

Areal Flood Warning
Issued: 12:52 AM CDT Aug. 24, 2016 – National Weather Service

The National Weather Service in La Crosse has extended the

* Flood Warning for...
Chickasaw County in northeastern Iowa...
southern Howard County in northeastern Iowa...
Floyd County in north central Iowa...

* until 700 am CDT Wednesday

* heavy rains of 3 to 5 inches were common across the area Tuesday
evening... resulting in continued high waters on many area rivers
and streams.

Stream and river levels will remain near or above flood stage
overnight... including the following...

Beaver Creek... Peters Creek... little Wapsipinicon River... Mead
creek... Winnebago River... Cedar River... Turkey River...
Wapsipinicon River... gizzard creek... Shell Rock River... Rock
creek... Elk Creek... flood creek... Schultz creek... Slough
creek... Little Cedar river... sunken creek... and bloody run.

Precautionary/preparedness actions...

Be especially cautious at night when it is harder to recognize the
dangers of flooding. Never drive your vehicle through flooded
roadways. Turn around... don't drown.


Lat... Lon 4321 9302 4321 9256 4324 9255 4327 9208
      4304 9208 4292 9302


Lawrence